Time;durP1;ratioP1;P1;durP2;ratioP2;P2;SDS_P1;SDS_P2;PMS_P1;PMS_P2;Temp;Humidity;BMP_temperature;BMP_pressure;BME280_temperature;BME280_humidity;BME280_pressure;Samples;Min_cycle;Max_cycle;Signal;HPM_P1;HPM_P2
2022/06/22 00:03:35;;;;;;;6.28;2.58;;;;;;;14.96;100.00;101309.72;10357326;28;20047;-61
2022/06/22 00:08:37;;;;;;;6.43;2.58;;;;;;;14.83;100.00;101306.06;10355247;28;20135;-62
2022/06/22 00:13:35;;;;;;;;;;;;;;;14.78;100.00;101309.81;10357964;28;20549;-61
2022/06/22 00:18:39;;;;;;;5.55;2.67;;;;;;;14.71;100.00;101315.03;10352411;27;19920;-60
2022/06/22 00:23:43;;;;;;;7.30;3.10;;;;;;;14.68;100.00;101321.19;10343543;28;20084;-63
2022/06/22 00:28:55;;;;;;;4.75;2.72;;;;;;;14.64;100.00;101315.53;10356892;28;20036;-64
2022/06/22 00:34:10;;;;;;;7.30;3.50;;;;;;;14.57;100.00;101323.50;10351222;28;20032;-64
2022/06/22 00:39:28;;;;;;;6.65;2.70;;;;;;;14.53;100.00;101319.78;10357004;28;20075;-62
2022/06/22 00:44:29;;;;;;;7.28;2.72;;;;;;;14.47;100.00;101310.91;10348017;28;20063;-61
2022/06/22 00:49:28;;;;;;;7.88;3.35;;;;;;;14.37;100.00;101308.53;10353927;28;20134;-61
2022/06/22 00:54:28;;;;;;;6.65;3.33;;;;;;;14.27;100.00;101306.09;10355094;28;20078;-63
2022/06/22 00:59:37;;;;;;;7.40;3.08;;;;;;;14.18;100.00;101310.81;10360465;28;20131;-63
2022/06/22 01:04:59;;;;;;;6.68;3.85;;;;;;;14.09;100.00;101300.66;10360178;28;20048;-63
2022/06/22 01:09:59;;;;;;;8.30;3.53;;;;;;;14.01;100.00;101296.00;10363747;28;20048;-62
2022/06/22 01:15:05;;;;;;;6.82;3.67;;;;;;;13.92;100.00;101300.69;10356167;28;20159;-64
2022/06/22 01:20:40;;;;;;;7.95;3.95;;;;;;;13.86;100.00;101296.53;10355836;28;20113;-64
2022/06/22 01:25:42;;;;;;;6.85;3.90;;;;;;;13.76;100.00;101294.09;10350397;28;20072;-61
2022/06/22 01:30:43;;;;;;;9.10;4.43;;;;;;;13.68;100.00;101303.97;10363611;27;20067;-65
2022/06/22 01:35:39;;;;;;;9.57;4.55;;;;;;;13.70;100.00;101314.66;10365068;28;20051;-63
2022/06/22 01:40:45;;;;;;;7.47;4.60;;;;;;;13.70;100.00;101314.66;10356971;28;20135;-64
2022/06/22 01:45:53;;;;;;;9.35;4.10;;;;;;;13.61;100.00;101298.97;10354222;28;20052;-64
2022/06/22 01:51:15;;;;;;;6.90;3.90;;;;;;;13.57;100.00;101306.22;10343341;28;20044;-61
2022/06/22 01:56:29;;;;;;;9.65;4.32;;;;;;;13.55;100.00;101308.47;10355369;28;20512;-63
2022/06/22 02:01:43;;;;;;;7.35;4.25;;;;;;;13.50;100.00;101316.09;10359028;28;20037;-62
2022/06/22 02:12:20;;;;;;;9.40;5.03;;;;;;;13.34;100.00;101318.50;10356567;28;20051;-62
2022/06/22 02:17:22;;;;;;;9.13;5.05;;;;;;;13.30;100.00;101318.34;10350316;28;20048;-64
2022/06/22 02:22:19;;;;;;;7.70;4.80;;;;;;;13.28;100.00;101308.81;10352438;28;20067;-62
2022/06/22 02:27:23;;;;;;;7.35;4.85;;;;;;;13.19;100.00;101312.31;10358781;28;20075;-61
2022/06/22 02:32:31;;;;;;;11.32;5.60;;;;;;;13.18;100.00;101305.22;10352175;28;20114;-61
2022/06/22 02:37:32;;;;;;;8.95;5.05;;;;;;;13.14;100.00;101287.78;10354094;28;20507;-61
2022/06/22 02:47:57;;;;;;;8.27;5.07;;;;;;;13.01;100.00;101300.50;10350935;28;20588;-61
2022/06/22 02:53:05;;;;;;;9.80;5.22;;;;;;;12.94;100.00;101293.88;10364244;28;20414;-61
2022/06/22 02:58:20;;;;;;;11.90;6.50;;;;;;;12.93;100.00;101292.25;10360406;28;20074;-63
2022/06/22 03:03:18;;;;;;;8.77;5.32;;;;;;;12.89;100.00;101269.31;10353769;28;20056;-63
2022/06/22 03:08:18;;;;;;;9.75;5.75;;;;;;;12.86;100.00;101276.25;10348025;28;20063;-63
2022/06/22 03:13:18;;;;;;;11.27;5.63;;;;;;;12.80;100.00;101278.34;10342798;28;20453;-64
2022/06/22 03:18:26;;;;;;;9.40;6.30;;;;;;;12.79;100.00;101279.47;10341062;28;20043;-65
2022/06/22 03:23:41;;;;;;;11.23;5.85;;;;;;;12.73;100.00;101279.94;10346107;28;20044;-65
2022/06/22 03:28:45;;;;;;;9.38;6.20;;;;;;;12.66;100.00;101265.88;10332208;28;20140;-60
2022/06/22 03:33:50;;;;;;;9.13;5.53;;;;;;;12.68;100.00;101275.41;10328824;28;20044;-67
2022/06/22 03:38:54;;;;;;;11.07;6.63;;;;;;;12.66;100.00;101288.63;10329005;28;20047;-65
2022/06/22 03:44:03;;;;;;;;;;;;;;;12.66;100.00;101276.84;10338890;28;20040;-67
2022/06/22 03:49:15;;;;;;;11.32;6.57;;;;;;;12.62;100.00;101282.16;10345751;28;20010;-64
2022/06/22 03:54:26;;;;;;;9.60;6.10;;;;;;;12.62;100.00;101282.16;10350087;28;20079;-64
2022/06/22 03:59:23;;;;;;;10.23;6.25;;;;;;;12.69;100.00;101287.97;10340291;28;20076;-64
2022/06/22 04:04:23;;;;;;;10.80;6.80;;;;;;;12.69;100.00;101293.47;10333980;28;20496;-64
2022/06/22 04:09:25;;;;;;;10.57;7.13;;;;;;;12.71;100.00;101307.69;10329823;28;20071;-64
2022/06/22 04:14:29;;;;;;;11.70;7.80;;;;;;;12.69;100.00;101293.47;10336240;28;20047;-64
2022/06/22 04:19:38;;;;;;;10.55;7.30;;;;;;;12.77;100.00;101306.41;10329602;28;20155;-64
2022/06/22 04:24:52;;;;;;;13.45;7.72;;;;;;;12.75;100.00;101319.66;10322978;28;20127;-64
2022/06/22 04:29:53;;;;;;;13.80;8.15;;;;;;;12.79;100.00;101315.16;10317576;28;20158;-64
2022/06/22 04:35:18;;;;;;;13.65;8.20;;;;;;;12.87;100.00;101315.50;10338493;28;20106;-64
2022/06/22 04:40:22;;;;;;;15.50;8.27;;;;;;;12.92;100.00;101318.06;10335128;28;20135;-64
2022/06/22 04:45:40;;;;;;;12.50;7.72;;;;;;;12.95;100.00;101311.94;10324268;28;20695;-64
2022/06/22 04:50:40;;;;;;;15.93;7.25;;;;;;;12.99;100.00;101329.41;10333477;28;20111;-67
2022/06/22 04:55:40;;;;;;;13.70;7.70;;;;;;;13.09;100.00;101345.59;10334293;28;21637;-66
2022/06/22 05:00:36;;;;;;;11.63;6.82;;;;;;;13.16;100.00;101340.44;10328175;28;20070;-65
2022/06/22 05:05:34;;;;;;;10.02;6.70;;;;;;;13.24;100.00;101347.88;10329753;28;20048;-65
2022/06/22 05:10:34;;;;;;;10.82;6.20;;;;;;;13.31;100.00;101341.13;10340190;28;20690;-65
2022/06/22 05:15:36;;;;;;;9.70;5.22;;;;;;;13.37;100.00;101342.59;10350853;28;20040;-65
2022/06/22 05:20:39;;;;;;;10.67;4.63;;;;;;;13.45;100.00;101341.78;10354419;28;20047;-66
2022/06/22 05:25:36;;;;;;;8.77;4.80;;;;;;;13.53;100.00;101360.22;10359393;28;20044;-66
2022/06/22 05:30:39;;;;;;;11.55;6.22;;;;;;;13.65;100.00;101354.88;10358160;28;20184;-66
2022/06/22 05:35:48;;;;;;;8.70;4.75;;;;;;;13.72;100.00;101350.84;10371132;28;20043;-65
2022/06/22 05:40:46;;;;;;;9.38;4.07;;;;;;;13.80;100.00;101341.78;10348749;28;20052;-66
2022/06/22 05:45:50;;;;;;;10.43;3.78;;;;;;;13.78;100.00;101338.56;10358592;28;20482;-66
2022/06/22 05:50:53;;;;;;;9.13;3.55;;;;;;;13.92;100.00;101332.88;10372166;28;20063;-65
2022/06/22 05:56:21;;;;;;;13.98;4.82;;;;;;;14.03;100.00;101318.47;10367845;28;20070;-66
2022/06/22 06:01:26;;;;;;;10.13;4.45;;;;;;;14.08;100.00;101304.53;10358953;28;20492;-64
2022/06/22 06:06:38;;;;;;;13.73;3.75;;;;;;;14.17;100.00;101311.97;10355515;28;20443;-65
2022/06/22 06:11:42;;;;;;;9.38;3.92;;;;;;;14.27;100.00;101300.59;10359931;28;20043;-65
2022/06/22 06:16:47;;;;;;;9.70;4.10;;;;;;;14.38;100.00;101290.88;10366740;28;20704;-64
2022/06/22 06:21:45;;;;;;;13.43;4.25;;;;;;;14.47;100.00;101299.09;10362223;28;20090;-64
2022/06/22 06:32:41;;;;;;;10.27;4.15;;;;;;;14.72;100.00;101300.16;10345655;28;20135;-65
2022/06/22 06:37:44;;;;;;;11.77;3.72;;;;;;;14.83;100.00;101309.66;10355577;28;20582;-65
2022/06/22 06:42:49;;;;;;;10.75;4.00;;;;;;;14.88;100.00;101298.44;10370763;27;20527;-64
2022/06/22 06:47:51;;;;;;;12.60;4.30;;;;;;;15.02;100.00;101303.69;10349347;28;20039;-65
2022/06/22 06:52:53;;;;;;;12.20;5.03;;;;;;;15.20;100.00;101298.88;10356350;28;20036;-65
2022/06/22 06:58:30;;;;;;;12.27;3.70;;;;;;;15.36;100.00;101310.91;10365183;28;20077;-65
2022/06/22 07:03:38;;;;;;;10.90;4.30;;;;;;;15.43;100.00;101306.81;10329917;28;20032;-65
2022/06/22 07:08:49;;;;;;;10.38;3.55;;;;;;;15.53;100.00;101311.94;10341565;28;20080;-65
2022/06/22 07:13:53;;;;;;;10.27;3.55;;;;;;;15.64;100.00;101332.44;10359077;28;20069;-64
2022/06/22 07:19:06;;;;;;;8.20;3.95;;;;;;;15.73;100.00;101333.19;10352987;28;20044;-65
2022/06/22 07:24:18;;;;;;;10.40;4.05;;;;;;;15.81;100.00;101330.69;10355757;28;20495;-65
2022/06/22 07:29:39;;;;;;;6.25;3.45;;;;;;;15.82;100.00;101341.34;10358252;28;20052;-64
2022/06/22 07:34:45;;;;;;;11.65;4.13;;;;;;;15.96;100.00;101335.56;10368400;28;20032;-65
2022/06/22 07:39:52;;;;;;;9.18;4.38;;;;;;;16.14;100.00;101331.47;10348599;28;20048;-65
2022/06/22 07:44:48;;;;;;;12.25;4.70;;;;;;;16.20;100.00;101324.59;10360856;27;20564;-65
2022/06/22 07:49:54;;;;;;;9.18;4.30;;;;;;;16.32;100.00;101328.53;10353445;28;20096;-65
2022/06/22 07:54:58;;;;;;;10.30;4.15;;;;;;;16.36;100.00;101326.69;10357932;28;20533;-65
2022/06/22 08:00:06;;;;;;;8.02;3.88;;;;;;;16.50;100.00;101321.66;10347800;28;20048;-65
2022/06/22 08:05:13;;;;;;;10.43;4.47;;;;;;;16.66;100.00;101318.22;10338314;28;20121;-65
2022/06/22 08:10:32;;;;;;;11.60;4.53;;;;;;;16.77;100.00;101324.91;10357265;28;20071;-65
2022/06/22 08:15:41;;;;;;;10.15;4.93;;;;;;;16.86;100.00;101322.84;10356012;27;20480;-65
2022/06/22 08:20:41;;;;;;;9.18;4.43;;;;;;;17.02;100.00;101326.53;10359019;27;20055;-64
2022/06/22 08:25:38;;;;;;;10.90;4.93;;;;;;;17.21;100.00;101316.81;10353959;28;20064;-64
2022/06/22 08:30:35;;;;;;;13.85;5.00;;;;;;;17.35;100.00;101319.22;10353656;28;20044;-64
2022/06/22 08:35:55;;;;;;;12.10;5.30;;;;;;;17.50;100.00;101328.72;10364774;28;20043;-64
2022/06/22 08:40:59;;;;;;;12.38;5.20;;;;;;;17.61;100.00;101329.84;10356717;28;20104;-64
2022/06/22 08:46:08;;;;;;;12.25;5.72;;;;;;;17.70;100.00;101316.69;10354366;28;20036;-64
2022/06/22 08:51:18;;;;;;;15.65;5.45;;;;;;;17.87;100.00;101310.88;10343633;28;20698;-65
2022/06/22 08:56:27;;;;;;;8.68;4.80;;;;;;;18.03;100.00;101321.16;10355165;28;20044;-65
2022/06/22 09:01:35;;;;;;;9.88;4.68;;;;;;;18.24;100.00;101321.75;10366405;28;20073;-64
2022/06/22 09:06:41;;;;;;;10.80;5.28;;;;;;;18.41;100.00;101328.09;10365080;28;20478;-64
2022/06/22 09:11:48;;;;;;;9.82;5.25;;;;;;;18.39;100.00;101331.22;10356957;28;20052;-65
2022/06/22 09:16:47;;;;;;;11.55;5.93;;;;;;;18.47;100.00;101338.56;10370303;28;20109;-64
2022/06/22 09:22:11;;;;;;;9.95;4.93;;;;;;;18.56;100.00;101335.59;10373111;28;20079;-64
2022/06/22 09:27:11;;;;;;;12.90;5.40;;;;;;;18.76;100.00;101346.78;10347758;28;20044;-64
2022/06/22 09:32:32;;;;;;;8.40;4.35;;;;;;;18.95;100.00;101352.41;10351499;28;20851;-64
2022/06/22 09:37:53;;;;;;;11.75;5.68;;;;;;;19.07;100.00;101349.53;10339929;28;20105;-64
2022/06/22 09:43:29;;;;;;;12.88;5.90;;;;;;;19.14;100.00;101360.75;10351044;28;20071;-64
2022/06/22 09:48:40;;;;;;;11.93;5.32;;;;;;;19.30;100.00;101357.97;10360673;28;20546;-64
2022/06/22 09:53:44;;;;;;;12.65;5.47;;;;;;;19.55;100.00;101357.72;10357446;28;20032;-64
2022/06/22 09:59:07;;;;;;;13.32;6.00;;;;;;;19.80;100.00;101346.38;10360557;28;20040;-64
2022/06/22 10:04:25;;;;;;;12.65;5.55;;;;;;;19.97;100.00;101346.72;10359399;28;20093;-64
2022/06/22 10:09:47;;;;;;;10.65;4.80;;;;;;;20.23;100.00;101347.19;10350757;28;20500;-64
2022/06/22 10:15:01;;;;;;;10.35;4.65;;;;;;;20.58;100.00;101347.03;10336464;28;20165;-64
2022/06/22 10:20:16;;;;;;;11.88;4.68;;;;;;;21.77;94.77;101355.13;10355044;28;20090;-64
2022/06/22 10:25:25;;;;;;;9.95;5.05;;;;;;;22.70;89.23;101344.97;10355959;28;20072;-65
2022/06/22 10:30:33;;;;;;;8.20;3.90;;;;;;;24.03;89.02;101340.94;10361200;28;22291;-65
2022/06/22 10:35:45;;;;;;;8.20;4.50;;;;;;;24.57;69.03;101329.84;10358975;28;20036;-65
2022/06/22 10:46:29;;;;;;;;;;;;;;;26.89;67.73;101318.78;10350229;28;20088;-65
2022/06/22 10:51:40;;;;;;;6.28;3.08;;;;;;;26.68;46.65;101322.59;10340928;28;19942;-64
2022/06/22 10:57:02;;;;;;;9.55;3.45;;;;;;;27.55;45.91;101316.84;10362714;27;20097;-64
2022/06/22 11:02:29;;;;;;;7.85;3.50;;;;;;;27.87;44.44;101311.66;10372101;28;20043;-64
2022/06/22 11:07:51;;;;;;;7.25;3.08;;;;;;;28.30;45.83;101305.34;10347193;28;20142;-65
2022/06/22 11:12:54;;;;;;;8.98;2.78;;;;;;;28.11;39.15;101308.88;10366653;28;20083;-65
2022/06/22 11:18:20;;;;;;;7.47;2.60;;;;;;;28.04;43.44;101295.72;10356366;28;20075;-65
2022/06/22 11:23:43;;;;;;;9.50;3.33;;;;;;;28.42;40.93;101297.53;10352872;28;20134;-65
2022/06/22 11:34:41;;;;;;;5.35;2.20;;;;;;;28.54;37.67;101303.38;10350216;28;20035;-64
2022/06/22 11:39:52;;;;;;;6.53;2.35;;;;;;;28.70;39.44;101283.00;10330962;28;20128;-65
2022/06/22 11:50:45;;;;;;;7.13;2.13;;;;;;;28.46;40.82;101287.03;10373834;28;20086;-64
2022/06/22 11:55:47;;;;;;;7.43;3.40;;;;;;;27.49;40.54;101297.66;10345123;28;20119;-65
2022/06/22 12:01:02;;;;;;;;;;;;;;;27.13;39.50;101285.25;10337313;28;20127;-64
2022/06/22 12:06:02;;;;;;;6.18;2.67;;;;;;;27.11;35.78;101282.06;10354891;28;19928;-64
2022/06/22 12:11:29;;;;;;;7.53;2.60;;;;;;;27.56;37.48;101274.31;10357907;28;20048;-64
2022/06/22 12:16:49;;;;;;;5.70;1.98;;;;;;;26.15;36.92;101278.94;10361752;27;20074;-64
2022/06/22 12:21:51;;;;;;;5.15;1.58;;;;;;;27.22;36.46;101265.91;10320641;28;20040;-64
2022/06/22 12:27:05;;;;;;;6.53;1.92;;;;;;;27.52;36.16;101265.13;10349901;28;20626;-64
2022/06/22 12:32:38;;;;;;;4.95;1.75;;;;;;;27.63;36.33;101250.94;10363841;28;20500;-65
2022/06/22 12:37:42;;;;;;;5.85;2.90;;;;;;;27.33;37.25;101248.94;10333964;28;20050;-65
2022/06/22 12:42:53;;;;;;;7.07;2.13;;;;;;;26.92;38.83;101236.59;10361231;28;20044;-64
2022/06/22 12:48:17;;;;;;;7.68;2.42;;;;;;;26.31;39.34;101244.78;10369116;28;20049;-64
2022/06/22 12:53:26;;;;;;;6.95;3.10;;;;;;;25.39;41.06;101251.38;10363936;28;20036;-64
2022/06/22 12:58:55;;;;;;;5.93;2.20;;;;;;;24.90;42.64;101241.94;10357038;28;20048;-64
2022/06/22 13:03:58;;;;;;;7.97;2.67;;;;;;;24.77;44.77;101249.94;10303694;28;20074;-64
2022/06/22 13:08:57;;;;;;;5.40;2.38;;;;;;;25.13;45.56;101244.22;10354596;28;20404;-64
2022/06/22 13:14:15;;;;;;;8.40;2.63;;;;;;;25.77;46.28;101243.16;10357517;28;20093;-64
2022/06/22 13:19:53;;;;;;;4.97;2.17;;;;;;;25.50;45.21;101240.09;10363205;28;20067;-64
2022/06/22 13:25:41;;;;;;;6.13;2.40;;;;;;;24.81;47.29;101233.16;10314560;28;20090;-64
2022/06/22 13:30:55;;;;;;;8.30;2.00;;;;;;;24.51;50.69;101231.63;10343609;27;20075;-65
2022/06/22 13:35:56;;;;;;;4.43;1.70;;;;;;;24.31;51.14;101233.22;10366767;28;20048;-65
2022/06/22 13:41:05;;;;;;;6.22;2.33;;;;;;;24.21;49.91;101228.44;10362360;28;20174;-65
2022/06/22 13:46:23;;;;;;;6.90;1.90;;;;;;;24.04;50.99;101213.25;10366188;27;20089;-65
2022/06/22 13:51:45;;;;;;;6.10;2.05;;;;;;;23.94;54.05;101223.22;10368861;28;20044;-65
2022/06/22 13:57:04;;;;;;;5.83;1.93;;;;;;;24.09;54.94;101229.59;10357297;28;20123;-64
2022/06/22 14:02:23;;;;;;;4.60;1.70;;;;;;;24.20;51.30;101226.81;10356085;27;20046;-65
2022/06/22 14:07:27;;;;;;;4.43;1.75;;;;;;;24.07;52.87;101224.44;10354304;28;20109;-65
2022/06/22 14:12:30;;;;;;;6.68;2.15;;;;;;;23.90;52.06;101226.03;10375328;28;20134;-64
2022/06/22 14:17:41;;;;;;;5.85;1.75;;;;;;;23.92;53.61;101220.03;10341779;28;20052;-64
2022/06/22 14:22:41;;;;;;;5.13;1.50;;;;;;;24.35;53.91;101228.44;10353963;28;20135;-65
2022/06/22 14:28:02;;;;;;;3.70;1.48;;;;;;;25.23;51.50;101231.47;10360163;28;20079;-65
2022/06/22 14:33:01;;;;;;;5.90;1.95;;;;;;;25.35;49.45;101231.00;10355333;28;20407;-64
2022/06/22 14:38:01;;;;;;;3.67;1.33;;;;;;;25.33;49.29;101224.22;10355996;28;20141;-65
2022/06/22 14:43:08;;;;;;;4.80;1.42;;;;;;;25.24;55.33;101210.66;10355257;28;20109;-64
2022/06/22 14:48:20;;;;;;;5.78;1.80;;;;;;;25.05;51.32;101202.72;10353550;28;20048;-65
2022/06/22 14:53:48;;;;;;;5.60;1.92;;;;;;;25.09;49.57;101203.50;10358367;28;20139;-65
2022/06/22 14:58:53;;;;;;;5.82;1.40;;;;;;;25.38;51.21;101204.97;10354645;28;20128;-65
2022/06/22 15:04:07;;;;;;;5.15;1.67;;;;;;;25.35;50.94;101205.00;10327225;28;20036;-65
2022/06/22 15:09:14;;;;;;;6.18;1.98;;;;;;;25.15;52.21;101207.47;10333279;27;20043;-65
2022/06/22 15:14:23;;;;;;;8.63;2.08;;;;;;;25.02;53.31;101203.50;10331010;28;20131;-66
2022/06/22 15:19:31;;;;;;;6.15;2.20;;;;;;;25.27;56.24;101193.03;10329477;28;20094;-65
2022/06/22 15:24:46;;;;;;;7.53;2.67;;;;;;;25.35;58.67;101194.59;10338441;28;20564;-65
2022/06/22 15:29:51;;;;;;;7.40;2.20;;;;;;;25.20;59.02;101193.06;10342746;28;20098;-65
2022/06/22 15:35:18;;;;;;;7.85;2.83;;;;;;;25.29;60.58;101185.03;10347757;28;20055;-65
2022/06/22 15:40:27;;;;;;;5.07;2.03;;;;;;;25.33;61.78;101185.81;10340531;28;20080;-65
2022/06/22 15:45:39;;;;;;;7.25;2.20;;;;;;;25.29;61.43;101196.22;10348049;28;20064;-65
2022/06/22 15:51:01;;;;;;;6.85;2.30;;;;;;;25.38;62.05;101188.19;10360984;28;20040;-65
2022/06/22 15:56:16;;;;;;;4.18;1.27;;;;;;;25.63;60.93;101187.25;10357459;28;20815;-65
2022/06/22 16:01:27;;;;;;;8.10;2.38;;;;;;;25.73;62.18;101197.56;10344400;28;20064;-65
2022/06/22 16:06:46;;;;;;;5.47;1.83;;;;;;;26.81;60.50;101202.25;10342677;28;20044;-66
2022/06/22 16:17:24;;;;;;;6.93;1.52;;;;;;;27.75;50.90;101199.78;10328916;28;20776;-66
2022/06/22 16:22:27;;;;;;;4.55;1.50;;;;;;;28.40;49.26;101207.19;10331106;28;20079;-65
2022/06/22 16:27:31;;;;;;;4.90;1.63;;;;;;;28.67;48.98;101205.09;10331294;28;20072;-65
2022/06/22 16:32:50;;;;;;;7.07;1.80;;;;;;;29.06;46.00;101197.88;10338991;28;20405;-65
2022/06/22 16:38:05;;;;;;;7.35;2.05;;;;;;;28.78;46.32;101204.88;10331513;28;20048;-66
2022/06/22 16:43:20;;;;;;;5.60;1.67;;;;;;;27.88;49.98;101202.84;10332828;28;20130;-67
2022/06/22 16:48:24;;;;;;;7.13;2.05;;;;;;;27.81;49.79;101200.13;10338654;28;20075;-67
2022/06/22 16:53:24;;;;;;;8.10;1.98;;;;;;;28.02;48.45;101188.56;10328873;28;20063;-67
2022/06/22 16:58:28;;;;;;;7.57;3.20;;;;;;;28.69;46.25;101185.75;10331750;28;20075;-66
2022/06/22 17:03:37;;;;;;;6.55;1.85;;;;;;;29.39;45.46;101192.38;10338451;28;20085;-67
2022/06/22 17:09:01;;;;;;;4.40;1.48;;;;;;;29.67;44.08;101184.47;10330244;28;20063;-66
2022/06/22 17:13:58;;;;;;;4.75;1.55;;;;;;;29.12;45.04;101192.56;10334553;28;20056;-67
2022/06/22 17:19:17;;;;;;;6.80;3.60;;;;;;;28.58;45.78;101185.16;10327371;28;20056;-64
2022/06/22 17:24:24;;;;;;;6.75;1.73;;;;;;;28.00;46.41;101178.97;10340698;28;20048;-66
2022/06/22 17:29:32;;;;;;;5.25;1.95;;;;;;;27.24;49.38;101184.91;10352088;28;20054;-67
2022/06/22 17:34:55;;;;;;;4.60;1.63;;;;;;;27.68;50.68;101189.47;10342455;28;20553;-67
2022/06/22 17:40:04;;;;;;;4.68;1.33;;;;;;;28.17;49.10;101199.56;10337404;28;20140;-67
2022/06/22 17:45:38;;;;;;;7.47;1.95;;;;;;;28.76;48.06;101203.75;10344167;28;20068;-66
2022/06/22 17:50:58;;;;;;;68.22;47.63;;;;;;;29.08;46.16;101203.09;10340224;28;20040;-66
2022/06/22 17:56:00;;;;;;;6.28;1.75;;;;;;;29.15;45.66;101200.94;10324794;28;20454;-66
2022/06/22 18:00:57;;;;;;;4.07;1.63;;;;;;;28.78;47.35;101204.06;10329235;28;20607;-66
2022/06/22 18:06:17;;;;;;;4.20;1.40;;;;;;;27.56;51.85;101206.13;10335671;28;20040;-66
2022/06/22 18:11:14;;;;;;;4.07;1.35;;;;;;;26.60;57.23;101211.69;10320080;28;20048;-66
2022/06/22 18:16:13;;;;;;;4.10;1.30;;;;;;;25.98;63.61;101219.03;10324926;28;20601;-67
2022/06/22 18:21:25;;;;;;;6.28;1.80;;;;;;;25.32;81.25;101223.41;10341110;28;20575;-67
2022/06/22 18:26:24;;;;;;;6.15;2.17;;;;;;;24.75;77.11;101223.59;10334333;28;20127;-67
2022/06/22 18:31:31;;;;;;;4.97;1.52;;;;;;;24.39;81.56;101229.19;10336533;28;20079;-65
2022/06/22 18:36:40;;;;;;;4.97;1.75;;;;;;;24.20;85.24;101232.41;10332280;28;20044;-66
2022/06/22 18:42:04;;;;;;;7.50;1.88;;;;;;;23.95;86.14;101233.22;10346297;28;20049;-64
2022/06/22 18:47:21;;;;;;;6.55;2.17;;;;;;;23.68;88.36;101247.47;10324931;28;20072;-65
2022/06/22 18:53:04;;;;;;;4.85;1.77;;;;;;;23.55;90.45;101249.03;10320093;28;21346;-66
2022/06/22 18:58:25;;;;;;;5.80;2.00;;;;;;;23.36;94.37;101247.38;10335895;28;20101;-66
2022/06/22 19:03:26;;;;;;;4.25;1.85;;;;;;;23.07;98.21;101257.63;10317193;28;20105;-67
2022/06/22 19:08:32;;;;;;;6.50;1.92;;;;;;;22.94;100.00;101270.25;10337394;28;20059;-66
2022/06/22 19:13:38;;;;;;;4.85;2.00;;;;;;;22.62;100.00;101265.28;10323472;28;20322;-67
2022/06/22 19:18:38;;;;;;;8.88;2.50;;;;;;;22.42;100.00;101268.31;10325668;28;20071;-66
2022/06/22 19:23:40;;;;;;;6.60;1.92;;;;;;;22.28;100.00;101268.22;10309108;28;20040;-66
2022/06/22 19:29:02;;;;;;;5.80;1.73;;;;;;;22.12;100.00;101264.81;10313304;28;20135;-66
2022/06/22 19:34:33;;;;;;;6.22;2.67;;;;;;;21.96;100.00;101273.44;10318006;28;20067;-66
2022/06/22 19:40:12;;;;;;;6.88;2.00;;;;;;;21.76;100.00;101275.63;10313766;28;20048;-65
2022/06/22 19:45:27;;;;;;;4.30;2.40;;;;;;;21.62;100.00;101279.81;10307971;28;20110;-65
2022/06/22 19:50:58;;;;;;;4.55;2.00;;;;;;;21.53;100.00;101287.66;10319768;28;20059;-62
2022/06/22 19:56:02;;;;;;;4.45;2.10;;;;;;;21.42;100.00;101293.13;10304567;27;20063;-61
2022/06/22 20:01:11;;;;;;;7.45;3.17;;;;;;;21.36;100.00;101291.03;10303178;28;20412;-65
2022/06/22 20:06:14;;;;;;;4.40;2.17;;;;;;;21.14;100.00;101301.88;10331661;28;20063;-63
2022/06/22 20:11:29;;;;;;;5.43;1.92;;;;;;;21.09;100.00;101307.72;10335338;28;20087;-63
2022/06/22 20:16:33;;;;;;;3.03;1.63;;;;;;;21.00;100.00;101312.75;10334242;28;20084;-63
2022/06/22 20:21:52;;;;;;;7.63;2.78;;;;;;;20.77;100.00;101310.84;10349919;28;20044;-64
2022/06/22 20:27:10;;;;;;;5.15;2.22;;;;;;;20.72;100.00;101308.38;10339938;28;20048;-61
2022/06/22 20:32:39;;;;;;;4.40;2.03;;;;;;;20.57;100.00;101312.09;10359933;28;20139;-61
2022/06/22 20:37:39;;;;;;;4.90;1.85;;;;;;;20.44;100.00;101307.88;10344741;27;20052;-61
2022/06/22 20:42:35;;;;;;;3.67;1.85;;;;;;;20.31;100.00;101310.84;10351048;28;20178;-63
2022/06/22 20:47:45;;;;;;;4.35;1.60;;;;;;;20.26;100.00;101313.94;10347480;27;20048;-61
2022/06/22 20:52:46;;;;;;;4.55;1.55;;;;;;;20.10;100.00;101316.03;10340778;28;20078;-61
2022/06/22 20:57:52;;;;;;;4.30;1.65;;;;;;;19.91;100.00;101320.44;10349215;28;20048;-61
2022/06/22 21:02:52;;;;;;;4.35;1.50;;;;;;;19.71;100.00;101321.63;10338174;28;20060;-63
2022/06/22 21:07:48;;;;;;;3.97;1.50;;;;;;;19.73;100.00;101333.16;10358557;28;20733;-63
2022/06/22 21:13:04;;;;;;;5.03;1.50;;;;;;;19.61;100.00;101338.81;10360093;28;20072;-63
2022/06/22 21:18:09;;;;;;;4.80;1.60;;;;;;;19.50;100.00;101350.50;10361075;28;20075;-63
2022/06/22 21:23:18;;;;;;;3.70;1.30;;;;;;;19.40;100.00;101356.63;10368195;28;20054;-63
2022/06/22 21:28:29;;;;;;;4.55;1.55;;;;;;;19.31;100.00;101364.34;10358957;28;20648;-61
2022/06/22 21:33:26;;;;;;;4.10;1.45;;;;;;;19.25;100.00;101365.78;10365370;28;20094;-61
2022/06/22 21:38:28;;;;;;;4.35;1.75;;;;;;;19.10;100.00;101368.22;10356757;28;20499;-62
2022/06/22 21:43:44;;;;;;;7.00;1.80;;;;;;;18.94;100.00;101367.44;10359510;28;20064;-62
2022/06/22 21:49:07;;;;;;;3.78;1.50;;;;;;;18.87;100.00;101367.28;10354846;28;20071;-62
2022/06/22 21:54:27;;;;;;;2.70;1.23;;;;;;;18.83;100.00;101366.38;10345464;28;20117;-61
2022/06/22 21:59:35;;;;;;;2.53;1.42;;;;;;;18.76;100.00;101355.88;10349615;28;20056;-61
2022/06/22 22:04:49;;;;;;;4.32;1.20;;;;;;;18.63;100.00;101360.69;10361771;28;20134;-61
2022/06/22 22:10:05;;;;;;;3.80;1.55;;;;;;;18.56;100.00;101357.75;10349328;28;20048;-61
2022/06/22 22:15:06;;;;;;;4.93;1.65;;;;;;;18.42;100.00;101357.38;10350935;28;20052;-61
2022/06/22 22:20:26;;;;;;;4.22;1.50;;;;;;;18.38;100.00;101362.03;10352921;27;20135;-61
2022/06/22 22:25:27;;;;;;;3.35;1.45;;;;;;;18.24;100.00;101357.75;10354541;28;20526;-61
2022/06/22 22:30:27;;;;;;;4.93;1.67;;;;;;;18.18;100.00;101359.16;10354320;28;20048;-64
2022/06/22 22:35:33;;;;;;;4.15;1.90;;;;;;;18.11;100.00;101358.16;10361856;27;20051;-66
2022/06/22 22:40:36;;;;;;;4.93;1.90;;;;;;;18.02;100.00;101366.59;10354298;28;20040;-64
2022/06/22 22:45:34;;;;;;;5.00;2.00;;;;;;;17.92;100.00;101367.13;10356841;28;20663;-64
2022/06/22 22:50:35;;;;;;;5.18;2.10;;;;;;;17.87;100.00;101368.97;10355483;28;20782;-65
2022/06/22 22:55:38;;;;;;;4.28;1.80;;;;;;;17.87;100.00;101366.22;10366388;28;20070;-65
2022/06/22 23:00:38;;;;;;;4.00;1.75;;;;;;;17.81;100.00;101367.59;10350265;28;20052;-64
2022/06/22 23:05:36;;;;;;;4.38;1.85;;;;;;;17.74;100.00;101367.38;10356589;28;20551;-63
2022/06/22 23:10:40;;;;;;;5.13;1.60;;;;;;;17.66;100.00;101365.53;10353165;28;20459;-63
2022/06/22 23:15:37;;;;;;;7.13;2.72;;;;;;;17.57;100.00;101378.72;10359782;28;20040;-64
2022/06/22 23:20:40;;;;;;;5.60;2.28;;;;;;;17.48;100.00;101375.28;10361071;27;20040;-63
2022/06/22 23:25:40;;;;;;;;;;;;;;;17.40;100.00;101377.81;10344163;28;20082;-63
2022/06/22 23:30:38;;;;;;;5.95;2.38;;;;;;;17.32;100.00;101384.28;10347527;28;19924;-63
2022/06/22 23:35:41;;;;;;;5.55;2.38;;;;;;;17.24;100.00;101383.28;10359528;28;20048;-63
2022/06/22 23:40:39;;;;;;;10.75;2.80;;;;;;;17.17;100.00;101376.69;10358126;28;20074;-62
2022/06/22 23:45:35;;;;;;;4.97;2.53;;;;;;;17.10;100.00;101388.31;10356283;28;20786;-66
2022/06/22 23:50:32;;;;;;;4.13;2.28;;;;;;;17.03;100.00;101383.41;10346797;27;20509;-66
2022/06/22 23:55:32;;;;;;;4.20;1.95;;;;;;;16.98;100.00;101389.13;10346151;28;20044;-67
